createdAt,value
2019-04-25T00:00:46.693Z,99.90
2019-04-25T00:03:17.423Z,99.90
2019-04-25T00:05:46.879Z,99.90
2019-04-25T00:08:16.154Z,99.90
2019-04-25T00:10:45.362Z,99.90
2019-04-25T00:13:14.874Z,99.90
2019-04-25T00:15:44.883Z,99.90
2019-04-25T00:18:13.918Z,99.90
2019-04-25T00:20:44.690Z,99.90
2019-04-25T00:23:15.123Z,99.90
2019-04-25T00:26:03.548Z,99.90
2019-04-25T00:28:31.976Z,99.90
2019-04-25T00:31:02.035Z,99.90
2019-04-25T00:33:31.555Z,99.90
2019-04-25T00:36:00.097Z,99.90
2019-04-25T00:38:31.867Z,99.90
2019-04-25T00:41:01.665Z,99.90
2019-04-25T00:43:31.486Z,99.90
2019-04-25T00:46:01.523Z,99.90
2019-04-25T00:48:31.585Z,99.90
2019-04-25T00:51:01.878Z,99.90
2019-04-25T00:53:32.194Z,99.90
2019-04-25T00:56:01.454Z,99.90
2019-04-25T00:58:47.159Z,99.90
2019-04-25T01:01:17.847Z,99.90
2019-04-25T01:03:47.180Z,99.90
2019-04-25T01:06:16.044Z,99.90
2019-04-25T01:08:44.481Z,99.90
2019-04-25T01:11:13.337Z,99.90
2019-04-25T01:13:42.251Z,99.90
2019-04-25T01:16:12.005Z,99.90
2019-04-25T01:18:40.877Z,99.90
2019-04-25T01:21:09.579Z,99.90
2019-04-25T01:23:38.278Z,99.90
2019-04-25T01:26:07.283Z,99.90
2019-04-25T01:28:36.094Z,99.90
2019-04-25T01:31:06.312Z,99.90
2019-04-25T01:33:34.837Z,99.90
2019-04-25T01:38:58.912Z,99.90
2019-04-25T01:41:45.462Z,99.90
2019-04-25T01:44:15.798Z,99.90
2019-04-25T01:46:45.112Z,99.90
2019-04-25T01:49:13.996Z,99.90
2019-04-25T01:51:43.683Z,99.90
2019-04-25T01:54:14.013Z,99.90
2019-04-25T01:56:44.166Z,99.90
2019-04-25T01:59:13.496Z,99.90
2019-04-25T02:01:44.039Z,99.90
2019-04-25T02:04:13.243Z,99.90
2019-04-25T02:06:43.396Z,99.90
2019-04-25T02:09:15.712Z,99.90
2019-04-25T02:11:48.699Z,99.90
2019-04-25T02:14:17.397Z,99.90
2019-04-25T02:16:46.298Z,99.90
2019-04-25T02:19:17.574Z,99.90
2019-04-25T02:21:46.570Z,99.90
2019-04-25T02:24:15.012Z,99.90
2019-04-25T02:26:43.854Z,99.90
2019-04-25T02:29:13.645Z,99.90
2019-04-25T02:31:44.992Z,99.90
2019-04-25T02:34:17.725Z,99.90
2019-04-25T02:36:44.331Z,99.90
2019-04-25T02:39:17.270Z,99.90
2019-04-25T02:41:46.215Z,99.90
2019-04-25T02:44:14.802Z,99.90
2019-04-25T02:46:59.160Z,99.90
2019-04-25T02:49:35.926Z,99.90
2019-04-25T02:52:02.601Z,99.90
2019-04-25T02:54:31.350Z,99.90
2019-04-25T02:57:00.026Z,99.90
2019-04-25T02:59:28.588Z,99.90
2019-04-25T03:01:58.973Z,99.90
2019-04-25T03:04:27.724Z,99.90
2019-04-25T03:06:58.420Z,99.90
2019-04-25T03:09:27.018Z,99.90
2019-04-25T03:11:55.524Z,99.90
2019-04-25T03:14:26.652Z,99.90
2019-04-25T03:16:54.635Z,99.90
2019-04-25T03:19:30.773Z,99.90
2019-04-25T03:22:09.626Z,99.90
2019-04-25T03:24:37.304Z,99.90
2019-04-25T03:27:06.171Z,99.90
2019-04-25T03:29:35.940Z,99.90
2019-04-25T03:32:09.344Z,99.90
2019-04-25T03:34:35.588Z,99.90
2019-04-25T03:37:05.609Z,99.90
2019-04-25T03:39:34.726Z,99.90
2019-04-25T03:42:05.022Z,99.90
2019-04-25T03:44:33.838Z,99.90
2019-04-25T03:47:05.264Z,99.90
2019-04-25T03:49:33.679Z,99.90
2019-04-25T03:52:05.237Z,99.90
2019-04-25T03:54:33.480Z,99.90
2019-04-25T03:57:04.748Z,99.90
2019-04-25T03:59:33.590Z,99.90
2019-04-25T04:02:05.326Z,99.90
2019-04-25T04:04:33.531Z,99.90
2019-04-25T04:07:05.834Z,99.90
2019-04-25T04:09:33.809Z,99.90
2019-04-25T04:12:04.313Z,99.90
2019-04-25T04:14:33.825Z,99.90
2019-04-25T04:17:14.779Z,99.90
2019-04-25T04:19:48.268Z,99.90
2019-04-25T04:22:21.019Z,99.90
2019-04-25T04:24:51.093Z,99.90
2019-04-25T04:27:19.855Z,99.90
2019-04-25T04:30:08.068Z,99.90
2019-04-25T04:32:36.534Z,99.90
2019-04-25T04:35:06.535Z,99.90
2019-04-25T04:37:35.774Z,99.90
2019-04-25T04:40:06.213Z,99.90
2019-04-25T04:42:34.673Z,99.90
2019-04-25T04:45:03.744Z,99.90
2019-04-25T04:47:33.265Z,99.90
2019-04-25T04:50:03.887Z,99.90
2019-04-25T04:52:33.996Z,99.90
2019-04-25T04:55:07.656Z,99.90
2019-04-25T04:57:35.980Z,99.90
2019-04-25T05:00:04.568Z,99.90
2019-04-25T05:02:34.695Z,99.90
2019-04-25T05:05:20.095Z,99.90
2019-04-25T05:07:50.182Z,99.90
2019-04-25T05:13:06.438Z,99.90
2019-04-25T05:15:34.869Z,99.90
2019-04-25T05:18:04.044Z,99.90
2019-04-25T05:20:34.195Z,99.90
2019-04-25T05:23:03.247Z,99.90
2019-04-25T05:25:32.035Z,99.90
2019-04-25T05:28:03.108Z,99.90
2019-04-25T05:30:33.641Z,99.90
2019-04-25T05:33:03.849Z,99.90
2019-04-25T05:35:33.252Z,99.90
2019-04-25T05:38:03.417Z,99.90
2019-04-25T05:40:33.331Z,99.90
2019-04-25T05:43:03.738Z,99.90
2019-04-25T05:45:34.128Z,99.90
2019-04-25T05:48:04.225Z,99.90
2019-04-25T05:50:33.865Z,99.90
2019-04-25T05:53:04.166Z,99.90
2019-04-25T05:55:34.111Z,99.90
2019-04-25T05:58:03.854Z,99.90
2019-04-25T06:00:34.025Z,99.90
2019-04-25T06:03:03.614Z,99.90
2019-04-25T06:05:33.520Z,99.90
2019-04-25T06:08:04.146Z,99.90
2019-04-25T06:10:34.626Z,99.90
2019-04-25T06:13:05.786Z,99.90
2019-04-25T06:15:35.391Z,99.90
2019-04-25T06:18:05.542Z,99.90
2019-04-25T06:20:38.018Z,99.90
2019-04-25T06:23:10.869Z,99.90
2019-04-25T06:25:39.986Z,99.90
2019-04-25T06:28:13.734Z,99.90
2019-04-25T06:30:44.275Z,99.90
2019-04-25T06:33:13.375Z,99.90
2019-04-25T06:35:42.137Z,99.90
2019-04-25T06:38:10.901Z,99.90
2019-04-25T06:40:39.333Z,99.90
2019-04-25T06:43:08.196Z,99.90
2019-04-25T06:46:14.212Z,99.90
2019-04-25T06:48:45.588Z,99.90
2019-04-25T06:51:14.664Z,99.90
2019-04-25T06:53:43.696Z,99.90
2019-04-25T06:56:13.721Z,99.90
2019-04-25T06:58:43.827Z,99.90
2019-04-25T07:01:13.523Z,99.90
2019-04-25T07:03:42.093Z,99.90
2019-04-25T07:06:10.827Z,99.90
2019-04-25T07:08:39.269Z,99.90
2019-04-25T07:11:08.043Z,99.90
2019-04-25T07:13:38.863Z,99.90
2019-04-25T07:16:07.569Z,99.90
2019-04-25T07:18:37.384Z,99.90
2019-04-25T07:21:06.308Z,99.90
2019-04-25T07:23:35.774Z,99.90
2019-04-25T07:26:06.338Z,99.90
2019-04-25T07:28:39.208Z,99.90
2019-04-25T07:31:13.342Z,99.90
2019-04-25T07:33:47.311Z,99.90
2019-04-25T07:36:16.019Z,99.90
2019-04-25T07:38:44.455Z,99.80
2019-04-25T07:41:14.738Z,99.90
2019-04-25T07:43:43.852Z,99.80
2019-04-25T07:46:13.490Z,99.60
2019-04-25T07:48:43.865Z,99.20
2019-04-25T07:51:16.200Z,98.70
2019-04-25T07:53:43.687Z,97.20
2019-04-25T07:56:14.082Z,98.70
2019-04-25T07:58:50.522Z,98.00
2019-04-25T08:01:15.110Z,97.80
2019-04-25T08:03:44.091Z,96.50
2019-04-25T08:06:13.806Z,96.80
2019-04-25T08:08:43.633Z,96.30
2019-04-25T08:11:14.046Z,96.70
2019-04-25T08:13:47.603Z,96.60
2019-04-25T08:16:24.083Z,96.20
2019-04-25T08:18:53.964Z,94.30
2019-04-25T08:21:23.874Z,92.80
2019-04-25T08:23:53.372Z,92.80
2019-04-25T08:26:23.997Z,92.10
2019-04-25T08:28:57.218Z,87.60
2019-04-25T08:31:43.923Z,83.00
2019-04-25T08:34:14.342Z,78.50
2019-04-25T08:36:45.369Z,67.20
2019-04-25T08:39:14.528Z,61.80
2019-04-25T08:41:45.433Z,59.50
2019-04-25T08:44:14.199Z,58.50
2019-04-25T08:46:44.229Z,56.30
2019-04-25T08:49:17.839Z,54.60
2019-04-25T08:51:48.066Z,54.20
2019-04-25T08:54:18.209Z,51.80
2019-04-25T08:56:46.644Z,53.20
2019-04-25T08:59:40.016Z,53.10
2019-04-25T09:02:04.762Z,51.80
2019-04-25T09:04:38.036Z,50.00
2019-04-25T09:07:06.790Z,53.20
2019-04-25T09:09:36.923Z,48.00
2019-04-25T09:12:05.850Z,49.00
2019-04-25T09:14:36.272Z,48.60
2019-04-25T09:17:04.615Z,47.60
2019-04-25T09:19:35.847Z,46.00
2019-04-25T09:22:03.428Z,46.20
2019-04-25T09:24:31.900Z,41.90
2019-04-25T09:27:00.687Z,43.40
2019-04-25T09:29:29.490Z,41.30
2019-04-25T09:31:58.294Z,42.00
2019-04-25T09:34:27.107Z,39.80
2019-04-25T09:36:55.705Z,39.00
2019-04-25T09:39:35.703Z,38.70
2019-04-25T09:42:05.227Z,39.00
2019-04-25T09:44:53.794Z,37.50
2019-04-25T09:47:23.442Z,37.20
2019-04-25T09:49:53.536Z,35.70
2019-04-25T09:52:24.360Z,37.20
2019-04-25T09:54:57.594Z,36.90
2019-04-25T09:57:45.987Z,34.10
2019-04-25T10:00:33.394Z,32.80
2019-04-25T10:03:02.559Z,31.70
2019-04-25T10:05:31.101Z,33.80
2019-04-25T10:07:59.620Z,32.10
2019-04-25T10:10:28.857Z,31.90
2019-04-25T10:12:57.297Z,31.90
2019-04-25T10:15:44.708Z,32.40
2019-04-25T10:18:14.542Z,32.00
2019-04-25T10:20:44.643Z,33.20
2019-04-25T10:23:15.578Z,31.10
2019-04-25T10:25:45.082Z,31.80
2019-04-25T10:28:13.741Z,30.60
2019-04-25T10:30:42.977Z,30.60
2019-04-25T10:33:14.102Z,30.80
2019-04-25T10:35:52.106Z,30.50
2019-04-25T10:38:15.009Z,29.40
2019-04-25T10:40:47.260Z,30.00
2019-04-25T10:43:15.911Z,30.00
2019-04-25T10:45:45.988Z,30.40
2019-04-25T10:48:15.297Z,29.10
2019-04-25T10:50:46.842Z,29.50
2019-04-25T10:53:14.482Z,30.80
2019-04-25T10:55:43.445Z,30.70
2019-04-25T10:58:11.885Z,29.70
2019-04-25T11:00:42.325Z,30.90
2019-04-25T11:03:15.782Z,29.50
2019-04-25T11:05:45.202Z,28.90
2019-04-25T11:08:16.738Z,29.10
2019-04-25T11:10:46.995Z,28.60
2019-04-25T11:13:14.467Z,29.20
2019-04-25T11:15:44.839Z,30.00
2019-04-25T11:18:15.254Z,29.20
2019-04-25T11:20:45.335Z,29.50
2019-04-25T11:23:14.489Z,28.60
2019-04-25T11:25:44.994Z,27.30
2019-04-25T11:28:14.429Z,27.80
2019-04-25T11:30:46.521Z,26.70
2019-04-25T11:33:15.964Z,28.00
2019-04-25T11:35:47.512Z,27.60
2019-04-25T11:38:27.888Z,27.40
2019-04-25T11:41:07.378Z,26.70
2019-04-25T11:43:36.538Z,27.50
2019-04-25T11:46:05.775Z,27.70
2019-04-25T11:48:34.343Z,28.60
2019-04-25T11:51:03.686Z,27.80
2019-04-25T11:53:33.891Z,29.20
2019-04-25T11:56:04.148Z,28.50
2019-04-25T11:58:32.885Z,28.10
2019-04-25T12:01:01.652Z,30.00
2019-04-25T12:03:30.254Z,31.40
2019-04-25T12:05:59.044Z,29.00
2019-04-25T12:08:27.853Z,29.30
2019-04-25T12:10:56.862Z,29.30
2019-04-25T12:13:25.665Z,28.80
2019-04-25T12:15:54.842Z,29.60
2019-04-25T12:18:25.638Z,29.00
2019-04-25T12:20:57.818Z,28.60
2019-04-25T12:23:25.476Z,30.70
2019-04-25T12:25:55.259Z,30.80
2019-04-25T12:28:24.512Z,32.90
2019-04-25T12:30:54.995Z,28.80
2019-04-25T12:33:23.923Z,28.60
2019-04-25T12:35:54.159Z,29.40
2019-04-25T12:38:24.575Z,30.80
2019-04-25T12:40:54.411Z,30.00
2019-04-25T12:43:25.720Z,30.10
2019-04-25T12:45:56.164Z,29.80
2019-04-25T12:48:25.062Z,29.40
2019-04-25T12:50:55.338Z,28.20
2019-04-25T12:53:24.098Z,27.70
2019-04-25T12:55:53.781Z,26.30
2019-04-25T12:58:23.535Z,25.30
2019-04-25T13:00:55.677Z,24.20
2019-04-25T13:03:24.117Z,26.10
2019-04-25T13:05:54.000Z,25.70
2019-04-25T13:08:24.153Z,25.70
2019-04-25T13:10:54.389Z,27.50
2019-04-25T13:13:24.109Z,29.30
2019-04-25T13:15:53.311Z,29.50
2019-04-25T13:18:22.266Z,28.70
2019-04-25T13:20:50.806Z,29.30
2019-04-25T13:23:19.308Z,28.90
2019-04-25T13:25:48.558Z,28.90
2019-04-25T13:28:19.098Z,28.60
2019-04-25T13:31:01.417Z,27.80
2019-04-25T13:33:27.055Z,26.50
2019-04-25T13:35:57.638Z,26.60
2019-04-25T13:38:26.807Z,28.70
2019-04-25T13:40:55.274Z,28.50
2019-04-25T13:43:23.990Z,27.00
2019-04-25T13:45:53.211Z,26.80
2019-04-25T13:48:25.569Z,27.60
2019-04-25T13:51:11.562Z,27.40
2019-04-25T13:53:40.026Z,26.00
2019-04-25T13:56:10.127Z,26.50
2019-04-25T13:58:38.666Z,27.10
2019-04-25T14:01:13.215Z,27.70
2019-04-25T14:03:40.168Z,27.80
2019-04-25T14:06:09.870Z,28.20
2019-04-25T14:08:39.159Z,28.70
2019-04-25T14:11:07.734Z,27.60
2019-04-25T14:13:36.239Z,27.00
2019-04-25T14:16:07.775Z,26.70
2019-04-25T14:18:46.982Z,26.50
2019-04-25T14:21:17.078Z,26.10
2019-04-25T14:23:45.780Z,27.40
2019-04-25T14:26:14.292Z,27.70
2019-04-25T14:28:44.263Z,27.90
2019-04-25T14:31:30.326Z,27.80
2019-04-25T14:33:45.503Z,27.40
2019-04-25T14:36:14.150Z,27.90
2019-04-25T14:38:42.583Z,27.30
2019-04-25T14:41:11.027Z,27.90
2019-04-25T14:43:39.556Z,27.60
2019-04-25T14:46:08.074Z,26.90
2019-04-25T14:48:36.503Z,25.70
2019-04-25T14:51:05.883Z,26.10
2019-04-25T14:53:35.223Z,25.00
2019-04-25T14:56:08.717Z,25.40
2019-04-25T14:58:38.906Z,26.00
2019-04-25T15:01:07.512Z,25.90
2019-04-25T15:03:36.119Z,25.80
2019-04-25T15:06:04.668Z,26.20
2019-04-25T15:08:33.109Z,27.00
2019-04-25T15:11:01.559Z,27.70
2019-04-25T15:13:30.326Z,28.00
2019-04-25T15:15:59.125Z,27.90
2019-04-25T15:18:27.630Z,28.50
2019-04-25T15:20:56.174Z,28.80
2019-04-25T15:23:25.436Z,29.00
2019-04-25T15:25:54.045Z,29.20
2019-04-25T15:28:24.328Z,29.30
2019-04-25T15:30:53.300Z,30.40
2019-04-25T15:33:21.941Z,29.60
2019-04-25T15:35:52.474Z,30.30
2019-04-25T15:38:31.678Z,30.30
2019-04-25T15:41:10.582Z,30.60
2019-04-25T15:43:44.103Z,30.70
2019-04-25T15:46:14.298Z,30.90
2019-04-25T15:48:42.747Z,31.50
2019-04-25T15:51:11.322Z,31.70
2019-04-25T15:53:40.279Z,32.40
2019-04-25T15:56:09.143Z,33.20
2019-04-25T15:58:37.646Z,32.30
2019-04-25T16:01:06.647Z,34.10
2019-04-25T16:03:35.438Z,32.70
2019-04-25T16:06:04.546Z,31.70
2019-04-25T16:08:33.071Z,31.00
2019-04-25T16:11:01.543Z,29.80
2019-04-25T16:13:30.186Z,28.70
2019-04-25T16:15:58.726Z,28.10
2019-04-25T16:18:28.405Z,26.10
2019-04-25T16:20:57.115Z,25.30
2019-04-25T16:23:25.638Z,24.90
2019-04-25T16:25:54.069Z,25.70
2019-04-25T16:28:22.500Z,25.50
2019-04-25T16:30:51.454Z,25.10
2019-04-25T16:33:19.948Z,24.80
2019-04-25T16:35:48.413Z,24.60
2019-04-25T16:38:18.151Z,24.90
2019-04-25T16:40:46.588Z,26.30
2019-04-25T16:43:16.912Z,27.40
2019-04-25T16:45:45.710Z,28.30
2019-04-25T16:48:14.378Z,28.10
2019-04-25T16:50:43.089Z,28.90
2019-04-25T16:53:11.895Z,28.90
2019-04-25T16:55:40.937Z,30.70
2019-04-25T16:58:09.667Z,30.70
2019-04-25T17:00:42.801Z,31.50
2019-04-25T17:03:12.111Z,30.80
2019-04-25T17:05:41.007Z,31.20
2019-04-25T17:08:09.967Z,31.50
2019-04-25T17:10:39.508Z,30.60
2019-04-25T17:13:08.525Z,29.90
2019-04-25T17:15:50.901Z,30.70
2019-04-25T17:21:00.047Z,31.10
2019-04-25T17:23:28.482Z,32.00
2019-04-25T17:25:57.093Z,32.10
2019-04-25T17:28:25.935Z,34.40
2019-04-25T17:30:59.353Z,46.50
2019-04-25T17:33:33.568Z,53.50
2019-04-25T17:36:03.782Z,57.00
2019-04-25T17:38:34.249Z,59.00
2019-04-25T17:41:03.463Z,61.30
2019-04-25T17:43:33.044Z,64.20
2019-04-25T17:46:01.861Z,66.00
2019-04-25T17:48:30.591Z,68.10
2019-04-25T17:50:59.294Z,70.20
2019-04-25T17:53:27.806Z,74.40
2019-04-25T17:55:56.271Z,78.20
2019-04-25T17:58:24.780Z,81.70
2019-04-25T18:00:53.563Z,83.30
2019-04-25T18:03:22.639Z,85.20
2019-04-25T18:05:51.071Z,85.50
2019-04-25T18:08:19.647Z,88.00
2019-04-25T18:10:48.385Z,88.90
2019-04-25T18:13:16.985Z,89.40
2019-04-25T18:15:53.754Z,90.20
2019-04-25T18:18:27.064Z,90.40
2019-04-25T18:20:55.504Z,90.80
2019-04-25T18:23:42.582Z,90.80
2019-04-25T18:26:19.315Z,90.10
2019-04-25T18:28:52.697Z,90.00
2019-04-25T18:31:21.522Z,89.50
2019-04-25T18:33:51.916Z,90.10
2019-04-25T18:36:38.748Z,90.20
2019-04-25T18:39:09.170Z,90.50
2019-04-25T18:41:48.050Z,90.90
2019-04-25T18:44:16.837Z,90.80
2019-04-25T18:46:47.254Z,91.10
2019-04-25T18:51:55.888Z,91.10
2019-04-25T18:54:32.141Z,91.70
2019-04-25T18:57:07.902Z,92.00
2019-04-25T18:59:44.563Z,92.30
2019-04-25T19:02:20.806Z,92.40
2019-04-25T19:05:07.421Z,92.70
2019-04-25T19:07:35.937Z,93.10
2019-04-25T19:10:06.781Z,93.30
2019-04-25T19:12:35.249Z,94.20
2019-04-25T19:15:04.816Z,94.10
2019-04-25T19:17:33.252Z,94.50
2019-04-25T19:20:02.555Z,94.90
2019-04-25T19:22:31.322Z,95.40
2019-04-25T19:24:59.758Z,95.50
2019-04-25T19:27:28.726Z,95.80
2019-04-25T19:29:57.162Z,95.70
2019-04-25T19:32:26.575Z,95.50
2019-04-25T19:34:55.438Z,95.40
2019-04-25T19:37:24.139Z,95.50
2019-04-25T19:40:10.639Z,95.70
2019-04-25T19:42:58.712Z,95.60
2019-04-25T19:45:28.022Z,95.60
2019-04-25T19:47:56.470Z,95.90
2019-04-25T19:50:25.319Z,95.90
2019-04-25T19:52:54.335Z,95.90
2019-04-25T19:55:23.059Z,95.80
2019-04-25T19:57:52.490Z,95.70
2019-04-25T20:00:21.860Z,95.70
2019-04-25T20:03:11.501Z,95.90
2019-04-25T20:05:46.171Z,96.00
2019-04-25T20:08:25.782Z,96.10
2019-04-25T20:10:55.962Z,96.40
2019-04-25T20:13:24.384Z,96.50
2019-04-25T20:15:53.846Z,96.70
2019-04-25T20:18:22.533Z,96.70
2019-04-25T20:20:52.025Z,96.70
2019-04-25T20:23:20.597Z,96.60
2019-04-25T20:25:49.254Z,96.80
2019-04-25T20:28:17.678Z,96.90
2019-04-25T20:30:47.042Z,96.70
2019-04-25T20:33:15.928Z,97.00
2019-04-25T20:35:44.823Z,96.90
2019-04-25T20:38:14.558Z,96.90
2019-04-25T20:40:43.287Z,97.00
2019-04-25T20:43:11.713Z,97.20
2019-04-25T20:45:40.528Z,97.30
2019-04-25T20:48:09.889Z,97.50
2019-04-25T20:50:38.672Z,97.80
2019-04-25T20:53:07.454Z,98.10
2019-04-25T20:55:36.357Z,98.00
2019-04-25T20:58:04.969Z,98.10
2019-04-25T21:00:39.975Z,98.60
2019-04-25T21:03:09.251Z,98.50
2019-04-25T21:05:37.750Z,98.80
2019-04-25T21:08:06.355Z,99.50
2019-04-25T21:10:34.817Z,99.10
2019-04-25T21:13:05.140Z,99.30
2019-04-25T21:15:52.164Z,99.20
2019-04-25T21:18:27.934Z,99.30
2019-04-25T21:20:57.131Z,99.70
2019-04-25T21:23:25.947Z,99.90
2019-04-25T21:25:54.729Z,99.90
2019-04-25T21:28:23.756Z,99.90
2019-04-25T21:30:52.722Z,99.90
2019-04-25T21:33:21.573Z,99.90
2019-04-25T21:35:50.824Z,99.90
2019-04-25T21:38:19.786Z,99.90
2019-04-25T21:40:58.860Z,99.90
2019-04-25T21:43:29.979Z,99.90
2019-04-25T21:45:58.762Z,99.90
2019-04-25T21:48:28.603Z,99.90
2019-04-25T21:50:57.416Z,99.90
2019-04-25T21:53:26.216Z,99.90
2019-04-25T21:55:55.556Z,99.90
2019-04-25T21:58:24.632Z,99.90
2019-04-25T22:00:56.423Z,99.90
2019-04-25T22:03:27.046Z,99.90
2019-04-25T22:05:56.852Z,99.90
2019-04-25T22:08:25.893Z,99.90
2019-04-25T22:10:54.935Z,99.90
2019-04-25T22:13:24.551Z,99.90
2019-04-25T22:15:53.442Z,99.90
2019-04-25T22:18:22.477Z,99.90
2019-04-25T22:20:51.329Z,99.90
2019-04-25T22:23:20.132Z,99.90
2019-04-25T22:25:49.335Z,99.90
2019-04-25T22:28:18.153Z,99.90
2019-04-25T22:30:48.662Z,99.90
2019-04-25T22:33:22.161Z,99.90
2019-04-25T22:35:52.305Z,99.90
2019-04-25T22:38:21.006Z,99.90
2019-04-25T22:40:49.673Z,99.90
2019-04-25T22:43:18.774Z,99.90
2019-04-25T22:45:47.749Z,99.90
2019-04-25T22:48:18.901Z,99.90
2019-04-25T22:50:47.742Z,99.90
2019-04-25T22:53:22.806Z,99.90
2019-04-25T22:55:46.881Z,99.90
2019-04-25T22:58:15.846Z,99.90
2019-04-25T23:00:44.320Z,99.90
2019-04-25T23:03:26.498Z,99.90
2019-04-25T23:05:56.894Z,99.90
2019-04-25T23:08:25.936Z,99.90
2019-04-25T23:10:55.231Z,99.90
2019-04-25T23:13:23.674Z,99.90
2019-04-25T23:15:52.182Z,99.90
2019-04-25T23:18:20.926Z,99.90
2019-04-25T23:20:49.363Z,99.90
2019-04-25T23:23:18.407Z,99.90
2019-04-25T23:26:00.982Z,99.90
2019-04-25T23:28:40.496Z,99.90
2019-04-25T23:31:10.613Z,99.90
2019-04-25T23:33:39.113Z,99.90
2019-04-25T23:36:09.096Z,99.90
2019-04-25T23:38:37.786Z,99.90
2019-04-25T23:41:07.225Z,99.90
2019-04-25T23:43:36.169Z,99.90
2019-04-25T23:46:05.683Z,99.90
2019-04-25T23:48:34.791Z,99.90
2019-04-25T23:51:03.497Z,99.90
2019-04-25T23:53:32.407Z,99.90
2019-04-25T23:56:00.903Z,99.90
2019-04-25T23:58:29.990Z,99.90
